Portada
METAR-TAF:

METAR-TAF

Aeroports :

Knox County Regional Airport

Rockland, Maine, Estats Units d'Amèrica

latitud: 44-04N, longitud: 069-06W, altitud: 17 m

Observació

L'informe es va fer fa 34 minuts, a les 14:56 UTC
Vent calma
Temperatura 3°C
Humitat 93%
Pressió 1007 hPa
Visibilitat: 14.5 km
Cel cobert a una alçada de 600 ft

METAR: KRKD 191456Z AUTO 00000KT 9SM OVC006 03/02 A2975 RMK AO2 SLP073 T00280017 51011

Hora: 10:30 (15:30 UTC)

Pronòstic

L'informe es va fer fa 1 hora i 18 minuts, a les 14:12 UTC
Pronòstic vàlid del 19 a les 14 UTC al 20 a les 12 UTC
Vent 6 kt del Nord/Nord-Est
Visibilitat: 4.8 km
Cel cobert a una alçada de 1000 ft
pluja
A partir de les 19 a les 1500 UTC
Vent 5 kt del Nord/Nord-Est
Visibilitat: 3.2 km
Cel cobert a una alçada de 800 ft
pluja
A partir de les 19 a les 1700 UTC
Vent 4 kt amb direcció variable
Visibilitat: 10 km
Cel cobert a una alçada de 300 ft

TAF: KRKD 191412Z 1914/2012 02006KT 3SM -RA OVC010 FM191500 02005KT 2SM -RA OVC008 FM191700 VRB04KT P6SM OVC003

Observacions i pronòstics meteorològics de més de 4000 aeroports (METAR i TAF).

Les estacions disponibles són els punts grocs i vermells al mapa.

Posi el ratolí al punt desitjat per veure el nom de l'estació.

Feu clic per veure les observacions i els pronòstics meteorològics.

Per canviar el mapa: feu clic els botons verds amb una creu de color negre per apropar; al botó verd amb un guió per allunyar la imatge; o en les fletxes verdes per a mapes adjacents.


METAR-TAF: